sensor_id;sensor_type;location;lat;lon;timestamp;P1;durP1;ratioP1;P2;durP2;ratioP2
61411;SDS011;47278;49.732;7.690;2023-04-03T04:54:31;5.07;;;3.23;;
61411;SDS011;47278;49.732;7.690;2023-04-03T04:56:57;5.73;;;3.90;;
61411;SDS011;47278;49.732;7.690;2023-04-03T04:59:23;7.23;;;3.70;;
61411;SDS011;47278;49.732;7.690;2023-04-03T05:01:49;7.30;;;3.97;;
61411;SDS011;47278;49.732;7.690;2023-04-03T05:04:14;4.23;;;3.50;;
61411;SDS011;47278;49.732;7.690;2023-04-03T05:06:40;4.93;;;3.70;;
61411;SDS011;47278;49.732;7.690;2023-04-03T05:09:06;4.50;;;3.63;;
61411;SDS011;47278;49.732;7.690;2023-04-03T05:11:32;8.27;;;4.00;;
61411;SDS011;47278;49.732;7.690;2023-04-03T05:13:58;5.90;;;3.90;;
61411;SDS011;47278;49.732;7.690;2023-04-03T05:16:23;4.23;;;3.70;;
61411;SDS011;47278;49.732;7.690;2023-04-03T05:18:50;6.87;;;4.30;;
61411;SDS011;47278;49.732;7.690;2023-04-03T05:21:15;5.63;;;4.73;;
61411;SDS011;47278;49.732;7.690;2023-04-03T05:23:43;7.07;;;4.93;;
61411;SDS011;47278;49.732;7.690;2023-04-03T05:26:09;8.23;;;4.33;;
61411;SDS011;47278;49.732;7.690;2023-04-03T05:28:34;5.13;;;3.83;;
61411;SDS011;47278;49.732;7.690;2023-04-03T05:31:01;4.60;;;3.43;;
61411;SDS011;47278;49.732;7.690;2023-04-03T05:33:27;6.27;;;4.17;;
61411;SDS011;47278;49.732;7.690;2023-04-03T05:35:53;7.63;;;3.43;;
61411;SDS011;47278;49.732;7.690;2023-04-03T05:38:19;6.43;;;3.77;;
61411;SDS011;47278;49.732;7.690;2023-04-03T05:40:45;5.70;;;3.87;;
61411;SDS011;47278;49.732;7.690;2023-04-03T05:43:11;3.87;;;3.17;;
61411;SDS011;47278;49.732;7.690;2023-04-03T05:45:37;9.70;;;3.30;;
61411;SDS011;47278;49.732;7.690;2023-04-03T05:48:02;7.00;;;3.93;;
61411;SDS011;47278;49.732;7.690;2023-04-03T05:50:28;12.83;;;5.00;;
61411;SDS011;47278;49.732;7.690;2023-04-03T05:52:55;6.07;;;3.50;;
61411;SDS011;47278;49.732;7.690;2023-04-03T05:55:23;7.13;;;3.60;;
61411;SDS011;47278;49.732;7.690;2023-04-03T05:57:49;6.63;;;3.70;;
61411;SDS011;47278;49.732;7.690;2023-04-03T06:00:15;8.33;;;3.73;;
61411;SDS011;47278;49.732;7.690;2023-04-03T06:02:41;5.73;;;3.27;;
61411;SDS011;47278;49.732;7.690;2023-04-03T06:05:08;6.27;;;3.10;;
61411;SDS011;47278;49.732;7.690;2023-04-03T06:07:36;4.07;;;2.60;;
61411;SDS011;47278;49.732;7.690;2023-04-03T06:10:02;5.73;;;2.87;;
61411;SDS011;47278;49.732;7.690;2023-04-03T06:12:28;9.33;;;2.83;;
61411;SDS011;47278;49.732;7.690;2023-04-03T06:14:55;6.00;;;2.63;;
61411;SDS011;47278;49.732;7.690;2023-04-03T06:17:20;11.03;;;2.97;;
61411;SDS011;47278;49.732;7.690;2023-04-03T06:19:46;5.87;;;2.23;;
61411;SDS011;47278;49.732;7.690;2023-04-03T06:22:12;7.40;;;2.57;;
61411;SDS011;47278;49.732;7.690;2023-04-03T06:24:39;3.73;;;2.23;;
61411;SDS011;47278;49.732;7.690;2023-04-03T06:27:05;4.03;;;2.30;;
61411;SDS011;47278;49.732;7.690;2023-04-03T06:29:30;9.50;;;2.27;;
61411;SDS011;47278;49.732;7.690;2023-04-03T06:31:56;5.63;;;2.30;;
61411;SDS011;47278;49.732;7.690;2023-04-03T06:34:22;5.47;;;2.13;;
61411;SDS011;47278;49.732;7.690;2023-04-03T06:36:47;6.70;;;2.47;;
61411;SDS011;47278;49.732;7.690;2023-04-03T06:39:18;3.47;;;1.63;;
61411;SDS011;47278;49.732;7.690;2023-04-03T06:41:47;3.37;;;2.00;;
61411;SDS011;47278;49.732;7.690;2023-04-03T06:44:13;3.70;;;1.97;;
61411;SDS011;47278;49.732;7.690;2023-04-03T06:46:40;5.27;;;2.00;;
61411;SDS011;47278;49.732;7.690;2023-04-03T06:49:06;4.50;;;2.30;;
61411;SDS011;47278;49.732;7.690;2023-04-03T06:51:33;5.90;;;2.50;;
61411;SDS011;47278;49.732;7.690;2023-04-03T06:53:59;5.07;;;2.20;;
61411;SDS011;47278;49.732;7.690;2023-04-03T06:56:25;7.63;;;2.40;;
61411;SDS011;47278;49.732;7.690;2023-04-03T06:58:52;6.60;;;2.60;;
61411;SDS011;47278;49.732;7.690;2023-04-03T07:01:19;8.47;;;2.40;;
61411;SDS011;47278;49.732;7.690;2023-04-03T07:03:45;7.53;;;2.63;;
61411;SDS011;47278;49.732;7.690;2023-04-03T07:06:13;5.63;;;2.60;;
61411;SDS011;47278;49.732;7.690;2023-04-03T07:08:40;5.40;;;2.40;;
61411;SDS011;47278;49.732;7.690;2023-04-03T07:11:07;6.07;;;2.40;;
61411;SDS011;47278;49.732;7.690;2023-04-03T07:13:33;5.47;;;2.47;;
61411;SDS011;47278;49.732;7.690;2023-04-03T07:16:00;6.77;;;2.70;;
61411;SDS011;47278;49.732;7.690;2023-04-03T07:18:26;6.37;;;2.60;;
61411;SDS011;47278;49.732;7.690;2023-04-03T07:20:52;6.03;;;2.30;;
61411;SDS011;47278;49.732;7.690;2023-04-03T07:23:18;4.30;;;2.30;;
61411;SDS011;47278;49.732;7.690;2023-04-03T07:25:44;5.67;;;2.50;;
61411;SDS011;47278;49.732;7.690;2023-04-03T07:28:11;3.77;;;2.40;;
61411;SDS011;47278;49.732;7.690;2023-04-03T07:30:44;3.97;;;2.20;;
61411;SDS011;47278;49.732;7.690;2023-04-03T07:33:11;6.60;;;2.27;;
61411;SDS011;47278;49.732;7.690;2023-04-03T07:35:38;3.87;;;2.10;;
61411;SDS011;47278;49.732;7.690;2023-04-03T07:38:04;8.83;;;2.80;;
61411;SDS011;47278;49.732;7.690;2023-04-03T07:40:30;5.97;;;2.53;;
61411;SDS011;47278;49.732;7.690;2023-04-03T07:42:56;6.70;;;2.63;;
61411;SDS011;47278;49.732;7.690;2023-04-03T07:45:22;3.83;;;2.60;;
61411;SDS011;47278;49.732;7.690;2023-04-03T07:47:48;4.30;;;2.30;;
61411;SDS011;47278;49.732;7.690;2023-04-03T07:50:13;5.23;;;2.83;;
61411;SDS011;47278;49.732;7.690;2023-04-03T07:52:39;4.43;;;2.40;;
61411;SDS011;47278;49.732;7.690;2023-04-03T07:55:06;5.47;;;2.30;;
61411;SDS011;47278;49.732;7.690;2023-04-03T07:57:32;6.87;;;2.73;;
61411;SDS011;47278;49.732;7.690;2023-04-03T07:59:57;6.50;;;2.90;;
61411;SDS011;47278;49.732;7.690;2023-04-03T08:02:23;6.50;;;2.60;;
61411;SDS011;47278;49.732;7.690;2023-04-03T08:04:49;7.70;;;2.90;;
61411;SDS011;47278;49.732;7.690;2023-04-03T08:07:15;6.87;;;2.90;;
61411;SDS011;47278;49.732;7.690;2023-04-03T08:09:40;6.40;;;2.73;;
61411;SDS011;47278;49.732;7.690;2023-04-03T08:12:06;8.13;;;2.57;;
61411;SDS011;47278;49.732;7.690;2023-04-03T08:14:32;5.70;;;2.53;;
61411;SDS011;47278;49.732;7.690;2023-04-03T08:16:59;7.13;;;2.23;;
61411;SDS011;47278;49.732;7.690;2023-04-03T08:19:25;5.60;;;2.60;;
61411;SDS011;47278;49.732;7.690;2023-04-03T08:21:51;8.23;;;2.40;;
61411;SDS011;47278;49.732;7.690;2023-04-03T08:24:18;4.57;;;2.47;;
61411;SDS011;47278;49.732;7.690;2023-04-03T08:26:44;5.33;;;2.67;;
61411;SDS011;47278;49.732;7.690;2023-04-03T08:29:10;6.27;;;2.60;;
61411;SDS011;47278;49.732;7.690;2023-04-03T08:31:35;6.23;;;2.77;;
61411;SDS011;47278;49.732;7.690;2023-04-03T08:34:01;4.93;;;2.40;;
61411;SDS011;47278;49.732;7.690;2023-04-03T08:36:28;6.57;;;2.87;;
61411;SDS011;47278;49.732;7.690;2023-04-03T08:38:54;7.60;;;2.60;;
61411;SDS011;47278;49.732;7.690;2023-04-03T08:41:37;5.73;;;2.50;;
61411;SDS011;47278;49.732;7.690;2023-04-03T08:44:18;4.47;;;2.40;;
61411;SDS011;47278;49.732;7.690;2023-04-03T08:49:41;6.80;;;2.70;;
61411;SDS011;47278;49.732;7.690;2023-04-03T08:52:22;4.10;;;2.30;;
61411;SDS011;47278;49.732;7.690;2023-04-03T08:55:00;9.03;;;2.60;;
61411;SDS011;47278;49.732;7.690;2023-04-03T08:57:35;5.00;;;2.77;;
61411;SDS011;47278;49.732;7.690;2023-04-03T09:00:16;5.07;;;2.47;;
61411;SDS011;47278;49.732;7.690;2023-04-03T09:02:47;4.63;;;2.67;;
61411;SDS011;47278;49.732;7.690;2023-04-03T09:05:17;8.83;;;2.57;;
61411;SDS011;47278;49.732;7.690;2023-04-03T09:08:04;9.20;;;2.67;;
61411;SDS011;47278;49.732;7.690;2023-04-03T09:10:37;5.87;;;2.37;;
61411;SDS011;47278;49.732;7.690;2023-04-03T09:15:38;4.90;;;2.40;;
61411;SDS011;47278;49.732;7.690;2023-04-03T09:23:40;4.13;;;2.22;;
61411;SDS011;47278;49.732;7.690;2023-04-03T09:26:14;5.50;;;2.27;;
61411;SDS011;47278;49.732;7.690;2023-04-03T09:28:42;5.47;;;2.25;;
61411;SDS011;47278;49.732;7.690;2023-04-03T09:31:14;8.20;;;2.47;;
61411;SDS011;47278;49.732;7.690;2023-04-03T09:33:45;6.47;;;2.27;;
61411;SDS011;47278;49.732;7.690;2023-04-03T09:36:13;6.13;;;2.30;;
61411;SDS011;47278;49.732;7.690;2023-04-03T09:38:38;3.37;;;2.20;;
61411;SDS011;47278;49.732;7.690;2023-04-03T09:41:05;6.38;;;2.45;;
61411;SDS011;47278;49.732;7.690;2023-04-03T09:43:33;4.63;;;2.20;;
61411;SDS011;47278;49.732;7.690;2023-04-03T09:46:17;6.72;;;2.30;;
61411;SDS011;47278;49.732;7.690;2023-04-03T09:48:59;6.28;;;2.40;;
61411;SDS011;47278;49.732;7.690;2023-04-03T09:51:27;6.43;;;2.28;;
61411;SDS011;47278;49.732;7.690;2023-04-03T09:53:54;5.07;;;2.45;;
61411;SDS011;47278;49.732;7.690;2023-04-03T09:56:22;4.32;;;2.13;;
61411;SDS011;47278;49.732;7.690;2023-04-03T10:06:46;2.90;;;1.65;;
61411;SDS011;47278;49.732;7.690;2023-04-03T10:09:21;3.53;;;2.00;;
61411;SDS011;47278;49.732;7.690;2023-04-03T10:11:59;6.72;;;2.15;;
61411;SDS011;47278;49.732;7.690;2023-04-03T10:14:27;3.83;;;1.70;;
61411;SDS011;47278;49.732;7.690;2023-04-03T10:28:02;5.45;;;1.92;;
61411;SDS011;47278;49.732;7.690;2023-04-03T10:33:34;4.57;;;1.80;;
61411;SDS011;47278;49.732;7.690;2023-04-03T10:36:34;3.10;;;1.83;;
61411;SDS011;47278;49.732;7.690;2023-04-03T10:42:25;4.73;;;1.90;;
61411;SDS011;47278;49.732;7.690;2023-04-03T10:58:58;4.60;;;2.13;;
61411;SDS011;47278;49.732;7.690;2023-04-03T11:01:09;2.78;;;1.65;;
61411;SDS011;47278;49.732;7.690;2023-04-03T11:03:46;7.63;;;2.40;;
61411;SDS011;47278;49.732;7.690;2023-04-03T11:06:15;4.57;;;2.10;;
61411;SDS011;47278;49.732;7.690;2023-04-03T11:08:48;4.32;;;2.20;;
61411;SDS011;47278;49.732;7.690;2023-04-03T11:11:17;4.18;;;2.47;;
61411;SDS011;47278;49.732;7.690;2023-04-03T11:14:00;3.70;;;2.17;;
61411;SDS011;47278;49.732;7.690;2023-04-03T11:16:36;7.47;;;2.03;;
61411;SDS011;47278;49.732;7.690;2023-04-03T11:19:20;3.10;;;1.98;;
61411;SDS011;47278;49.732;7.690;2023-04-03T11:21:54;3.40;;;2.20;;
61411;SDS011;47278;49.732;7.690;2023-04-03T11:24:27;3.30;;;1.90;;
61411;SDS011;47278;49.732;7.690;2023-04-03T11:26:56;4.40;;;2.45;;
61411;SDS011;47278;49.732;7.690;2023-04-03T11:29:24;4.28;;;2.30;;
61411;SDS011;47278;49.732;7.690;2023-04-03T11:34:37;5.65;;;2.88;;
61411;SDS011;47278;49.732;7.690;2023-04-03T11:40:04;6.50;;;2.25;;
61411;SDS011;47278;49.732;7.690;2023-04-03T11:42:41;4.70;;;2.10;;
61411;SDS011;47278;49.732;7.690;2023-04-03T12:14:01;4.18;;;2.42;;
61411;SDS011;47278;49.732;7.690;2023-04-03T12:16:33;4.55;;;2.38;;
61411;SDS011;47278;49.732;7.690;2023-04-03T12:24:29;5.15;;;2.30;;
61411;SDS011;47278;49.732;7.690;2023-04-03T12:29:58;6.20;;;2.20;;
61411;SDS011;47278;49.732;7.690;2023-04-03T12:41:19;4.05;;;2.30;;
61411;SDS011;47278;49.732;7.690;2023-04-03T12:46:49;4.57;;;2.35;;
61411;SDS011;47278;49.732;7.690;2023-04-03T12:52:05;6.97;;;2.65;;
61411;SDS011;47278;49.732;7.690;2023-04-03T12:54:43;2.95;;;2.05;;
61411;SDS011;47278;49.732;7.690;2023-04-03T12:57:12;5.40;;;2.40;;
61411;SDS011;47278;49.732;7.690;2023-04-03T12:59:43;3.72;;;2.47;;
61411;SDS011;47278;49.732;7.690;2023-04-03T13:02:24;4.15;;;2.35;;
61411;SDS011;47278;49.732;7.690;2023-04-03T13:04:52;5.43;;;2.67;;
61411;SDS011;47278;49.732;7.690;2023-04-03T13:07:24;4.32;;;2.25;;
61411;SDS011;47278;49.732;7.690;2023-04-03T13:09:57;3.63;;;2.67;;
61411;SDS011;47278;49.732;7.690;2023-04-03T13:12:33;6.47;;;2.80;;
61411;SDS011;47278;49.732;7.690;2023-04-03T13:15:01;3.05;;;2.45;;
61411;SDS011;47278;49.732;7.690;2023-04-03T13:17:41;4.38;;;2.33;;
61411;SDS011;47278;49.732;7.690;2023-04-03T13:20:26;4.20;;;2.30;;
61411;SDS011;47278;49.732;7.690;2023-04-03T13:25:34;7.70;;;2.78;;
61411;SDS011;47278;49.732;7.690;2023-04-03T13:28:05;5.90;;;2.40;;
61411;SDS011;47278;49.732;7.690;2023-04-03T13:30:33;5.60;;;2.47;;
61411;SDS011;47278;49.732;7.690;2023-04-03T13:33:02;3.80;;;2.15;;
61411;SDS011;47278;49.732;7.690;2023-04-03T13:38:05;3.97;;;2.17;;
61411;SDS011;47278;49.732;7.690;2023-04-03T13:40:54;2.95;;;2.28;;
61411;SDS011;47278;49.732;7.690;2023-04-03T13:43:29;3.53;;;2.40;;
61411;SDS011;47278;49.732;7.690;2023-04-03T13:46:06;3.60;;;2.30;;
61411;SDS011;47278;49.732;7.690;2023-04-03T13:48:51;4.20;;;2.17;;
61411;SDS011;47278;49.732;7.690;2023-04-03T13:53:46;3.88;;;2.70;;
61411;SDS011;47278;49.732;7.690;2023-04-03T13:56:34;5.50;;;2.58;;
61411;SDS011;47278;49.732;7.690;2023-04-03T14:01:52;3.17;;;2.25;;
61411;SDS011;47278;49.732;7.690;2023-04-03T14:04:21;3.38;;;2.30;;
61411;SDS011;47278;49.732;7.690;2023-04-03T14:06:53;3.28;;;2.40;;
61411;SDS011;47278;49.732;7.690;2023-04-03T14:09:20;3.00;;;2.30;;
61411;SDS011;47278;49.732;7.690;2023-04-03T14:11:48;5.65;;;2.30;;
61411;SDS011;47278;49.732;7.690;2023-04-03T14:14:36;4.00;;;2.47;;
61411;SDS011;47278;49.732;7.690;2023-04-03T14:17:15;3.75;;;2.40;;
61411;SDS011;47278;49.732;7.690;2023-04-03T14:19:43;3.28;;;2.25;;
61411;SDS011;47278;49.732;7.690;2023-04-03T14:22:16;4.13;;;2.50;;
61411;SDS011;47278;49.732;7.690;2023-04-03T14:24:42;6.03;;;3.20;;
61411;SDS011;47278;49.732;7.690;2023-04-03T14:27:16;5.45;;;2.47;;
61411;SDS011;47278;49.732;7.690;2023-04-03T14:29:48;5.70;;;2.50;;
61411;SDS011;47278;49.732;7.690;2023-04-03T14:32:16;3.80;;;2.22;;
61411;SDS011;47278;49.732;7.690;2023-04-03T14:34:43;5.93;;;2.58;;
61411;SDS011;47278;49.732;7.690;2023-04-03T14:37:14;4.10;;;2.58;;
61411;SDS011;47278;49.732;7.690;2023-04-03T14:39:42;3.97;;;2.20;;
61411;SDS011;47278;49.732;7.690;2023-04-03T14:42:14;10.73;;;2.42;;
61411;SDS011;47278;49.732;7.690;2023-04-03T14:44:45;6.18;;;2.20;;
61411;SDS011;47278;49.732;7.690;2023-04-03T14:47:14;3.58;;;2.50;;
61411;SDS011;47278;49.732;7.690;2023-04-03T14:49:43;2.97;;;2.38;;
61411;SDS011;47278;49.732;7.690;2023-04-03T14:54:46;4.20;;;2.50;;
61411;SDS011;47278;49.732;7.690;2023-04-03T14:57:14;4.38;;;2.53;;
61411;SDS011;47278;49.732;7.690;2023-04-03T14:59:41;3.95;;;2.38;;
61411;SDS011;47278;49.732;7.690;2023-04-03T15:04:52;3.60;;;2.35;;
61411;SDS011;47278;49.732;7.690;2023-04-03T15:07:18;3.83;;;2.30;;
61411;SDS011;47278;49.732;7.690;2023-04-03T15:09:44;3.50;;;2.50;;
61411;SDS011;47278;49.732;7.690;2023-04-03T15:12:10;3.22;;;2.40;;
61411;SDS011;47278;49.732;7.690;2023-04-03T15:14:35;6.22;;;4.13;;
61411;SDS011;47278;49.732;7.690;2023-04-03T15:17:01;5.95;;;3.65;;
61411;SDS011;47278;49.732;7.690;2023-04-03T15:19:28;4.05;;;2.78;;
61411;SDS011;47278;49.732;7.690;2023-04-03T15:21:56;6.82;;;4.30;;
61411;SDS011;47278;49.732;7.690;2023-04-03T15:24:21;3.92;;;2.63;;
61411;SDS011;47278;49.732;7.690;2023-04-03T15:26:47;4.43;;;2.80;;
61411;SDS011;47278;49.732;7.690;2023-04-03T15:29:13;4.00;;;2.65;;
61411;SDS011;47278;49.732;7.690;2023-04-03T15:31:38;4.20;;;2.47;;
61411;SDS011;47278;49.732;7.690;2023-04-03T15:34:04;3.85;;;3.03;;
61411;SDS011;47278;49.732;7.690;2023-04-03T15:36:30;2.72;;;2.20;;
61411;SDS011;47278;49.732;7.690;2023-04-03T15:38:55;4.28;;;2.60;;
61411;SDS011;47278;49.732;7.690;2023-04-03T15:41:21;5.43;;;2.13;;
61411;SDS011;47278;49.732;7.690;2023-04-03T15:43:47;3.25;;;2.45;;
61411;SDS011;47278;49.732;7.690;2023-04-03T15:46:12;4.75;;;2.60;;
61411;SDS011;47278;49.732;7.690;2023-04-03T15:48:38;3.72;;;2.20;;
61411;SDS011;47278;49.732;7.690;2023-04-03T15:51:05;4.28;;;2.50;;
61411;SDS011;47278;49.732;7.690;2023-04-03T15:53:31;2.70;;;2.40;;
61411;SDS011;47278;49.732;7.690;2023-04-03T15:55:56;5.88;;;4.10;;
61411;SDS011;47278;49.732;7.690;2023-04-03T15:58:22;4.53;;;2.40;;
61411;SDS011;47278;49.732;7.690;2023-04-03T16:00:48;3.28;;;1.92;;
61411;SDS011;47278;49.732;7.690;2023-04-03T16:03:16;3.70;;;2.40;;
61411;SDS011;47278;49.732;7.690;2023-04-03T16:05:44;4.28;;;2.55;;
61411;SDS011;47278;49.732;7.690;2023-04-03T16:08:10;4.80;;;2.30;;
61411;SDS011;47278;49.732;7.690;2023-04-03T16:10:36;4.22;;;2.40;;
61411;SDS011;47278;49.732;7.690;2023-04-03T16:13:03;3.83;;;2.20;;
61411;SDS011;47278;49.732;7.690;2023-04-03T16:15:29;5.28;;;2.47;;
61411;SDS011;47278;49.732;7.690;2023-04-03T16:17:57;4.93;;;2.22;;
61411;SDS011;47278;49.732;7.690;2023-04-03T16:20:23;2.80;;;2.15;;
61411;SDS011;47278;49.732;7.690;2023-04-03T16:22:50;4.95;;;2.42;;
61411;SDS011;47278;49.732;7.690;2023-04-03T16:25:16;4.65;;;2.25;;
61411;SDS011;47278;49.732;7.690;2023-04-03T16:27:42;4.10;;;2.30;;
61411;SDS011;47278;49.732;7.690;2023-04-03T16:30:08;5.63;;;2.53;;
61411;SDS011;47278;49.732;7.690;2023-04-03T16:32:34;3.60;;;2.30;;
61411;SDS011;47278;49.732;7.690;2023-04-03T16:35:01;3.20;;;2.58;;
61411;SDS011;47278;49.732;7.690;2023-04-03T16:37:27;4.30;;;2.25;;
61411;SDS011;47278;49.732;7.690;2023-04-03T16:39:53;4.53;;;2.38;;
61411;SDS011;47278;49.732;7.690;2023-04-03T16:42:18;3.10;;;2.30;;
61411;SDS011;47278;49.732;7.690;2023-04-03T16:44:44;3.38;;;2.42;;
61411;SDS011;47278;49.732;7.690;2023-04-03T16:47:10;4.72;;;2.38;;
61411;SDS011;47278;49.732;7.690;2023-04-03T16:49:37;3.70;;;2.38;;
61411;SDS011;47278;49.732;7.690;2023-04-03T16:52:04;4.07;;;2.33;;
61411;SDS011;47278;49.732;7.690;2023-04-03T16:54:30;3.63;;;2.35;;
61411;SDS011;47278;49.732;7.690;2023-04-03T16:56:57;2.95;;;2.08;;
61411;SDS011;47278;49.732;7.690;2023-04-03T16:59:23;3.08;;;2.38;;
61411;SDS011;47278;49.732;7.690;2023-04-03T17:01:49;3.53;;;2.33;;
61411;SDS011;47278;49.732;7.690;2023-04-03T17:04:14;3.33;;;2.17;;
61411;SDS011;47278;49.732;7.690;2023-04-03T17:06:40;4.00;;;2.55;;
61411;SDS011;47278;49.732;7.690;2023-04-03T17:09:07;4.80;;;2.47;;
61411;SDS011;47278;49.732;7.690;2023-04-03T17:11:34;3.95;;;2.15;;
61411;SDS011;47278;49.732;7.690;2023-04-03T17:14:01;2.78;;;2.13;;
61411;SDS011;47278;49.732;7.690;2023-04-03T17:16:27;4.47;;;2.47;;
61411;SDS011;47278;49.732;7.690;2023-04-03T17:18:53;5.22;;;2.25;;
61411;SDS011;47278;49.732;7.690;2023-04-03T17:21:20;3.63;;;2.15;;
61411;SDS011;47278;49.732;7.690;2023-04-03T17:23:49;3.67;;;2.90;;
61411;SDS011;47278;49.732;7.690;2023-04-03T17:26:18;4.43;;;2.40;;
61411;SDS011;47278;49.732;7.690;2023-04-03T17:28:45;4.82;;;2.45;;
61411;SDS011;47278;49.732;7.690;2023-04-03T17:31:11;4.22;;;2.05;;
61411;SDS011;47278;49.732;7.690;2023-04-03T17:33:37;3.30;;;2.10;;
61411;SDS011;47278;49.732;7.690;2023-04-03T17:36:03;4.03;;;2.40;;
61411;SDS011;47278;49.732;7.690;2023-04-03T17:38:31;4.50;;;2.15;;
61411;SDS011;47278;49.732;7.690;2023-04-03T17:41:02;6.70;;;2.13;;
61411;SDS011;47278;49.732;7.690;2023-04-03T17:43:30;4.57;;;1.95;;
61411;SDS011;47278;49.732;7.690;2023-04-03T17:46:03;2.85;;;2.03;;
61411;SDS011;47278;49.732;7.690;2023-04-03T17:48:33;3.27;;;1.93;;
61411;SDS011;47278;49.732;7.690;2023-04-03T17:51:03;3.10;;;1.60;;
61411;SDS011;47278;49.732;7.690;2023-04-03T17:53:30;8.03;;;2.63;;
61411;SDS011;47278;49.732;7.690;2023-04-03T17:55:56;3.17;;;2.10;;
61411;SDS011;47278;49.732;7.690;2023-04-03T17:58:22;5.07;;;2.00;;
61411;SDS011;47278;49.732;7.690;2023-04-03T18:00:48;3.20;;;1.90;;
61411;SDS011;47278;49.732;7.690;2023-04-03T18:03:15;6.17;;;2.70;;
61411;SDS011;47278;49.732;7.690;2023-04-03T18:05:41;4.33;;;2.27;;
61411;SDS011;47278;49.732;7.690;2023-04-03T18:08:06;2.67;;;2.03;;
61411;SDS011;47278;49.732;7.690;2023-04-03T18:10:34;4.80;;;2.43;;
61411;SDS011;47278;49.732;7.690;2023-04-03T18:13:00;3.07;;;1.97;;
61411;SDS011;47278;49.732;7.690;2023-04-03T18:15:27;3.30;;;1.90;;
61411;SDS011;47278;49.732;7.690;2023-04-03T18:17:53;3.33;;;1.87;;
61411;SDS011;47278;49.732;7.690;2023-04-03T18:20:21;5.30;;;2.40;;
61411;SDS011;47278;49.732;7.690;2023-04-03T18:22:48;4.53;;;2.57;;
61411;SDS011;47278;49.732;7.690;2023-04-03T18:25:15;4.27;;;2.40;;
61411;SDS011;47278;49.732;7.690;2023-04-03T18:27:41;5.47;;;3.00;;
61411;SDS011;47278;49.732;7.690;2023-04-03T18:30:09;4.03;;;2.30;;
61411;SDS011;47278;49.732;7.690;2023-04-03T18:32:38;3.40;;;1.80;;
61411;SDS011;47278;49.732;7.690;2023-04-03T18:35:04;7.07;;;2.70;;
61411;SDS011;47278;49.732;7.690;2023-04-03T18:37:30;4.83;;;2.30;;
61411;SDS011;47278;49.732;7.690;2023-04-03T18:39:56;3.60;;;2.13;;
61411;SDS011;47278;49.732;7.690;2023-04-03T18:42:22;4.23;;;2.33;;
61411;SDS011;47278;49.732;7.690;2023-04-03T18:44:51;5.83;;;1.77;;
61411;SDS011;47278;49.732;7.690;2023-04-03T18:47:20;2.70;;;1.67;;
61411;SDS011;47278;49.732;7.690;2023-04-03T18:49:46;3.27;;;1.70;;
61411;SDS011;47278;49.732;7.690;2023-04-03T18:52:12;3.80;;;1.70;;
61411;SDS011;47278;49.732;7.690;2023-04-03T18:54:38;3.60;;;1.77;;
61411;SDS011;47278;49.732;7.690;2023-04-03T18:57:06;3.97;;;1.30;;
61411;SDS011;47278;49.732;7.690;2023-04-03T18:59:32;2.30;;;1.70;;
61411;SDS011;47278;49.732;7.690;2023-04-03T19:01:58;3.90;;;1.90;;
61411;SDS011;47278;49.732;7.690;2023-04-03T19:04:24;4.50;;;1.90;;
61411;SDS011;47278;49.732;7.690;2023-04-03T19:06:51;2.87;;;1.70;;
61411;SDS011;47278;49.732;7.690;2023-04-03T19:09:17;3.43;;;1.80;;
61411;SDS011;47278;49.732;7.690;2023-04-03T19:11:43;2.10;;;1.50;;
61411;SDS011;47278;49.732;7.690;2023-04-03T19:14:09;3.07;;;1.60;;
61411;SDS011;47278;49.732;7.690;2023-04-03T19:16:35;4.10;;;1.70;;
61411;SDS011;47278;49.732;7.690;2023-04-03T19:19:00;5.73;;;1.70;;
61411;SDS011;47278;49.732;7.690;2023-04-03T19:21:26;3.17;;;1.50;;
61411;SDS011;47278;49.732;7.690;2023-04-03T19:23:52;2.97;;;1.70;;
61411;SDS011;47278;49.732;7.690;2023-04-03T19:26:19;3.27;;;2.00;;
61411;SDS011;47278;49.732;7.690;2023-04-03T19:28:45;2.07;;;1.50;;
61411;SDS011;47278;49.732;7.690;2023-04-03T19:31:15;6.90;;;1.70;;
61411;SDS011;47278;49.732;7.690;2023-04-03T19:33:44;2.63;;;1.77;;
61411;SDS011;47278;49.732;7.690;2023-04-03T19:36:11;4.07;;;1.93;;
61411;SDS011;47278;49.732;7.690;2023-04-03T19:38:37;7.00;;;1.70;;
61411;SDS011;47278;49.732;7.690;2023-04-03T19:41:08;2.43;;;1.67;;
61411;SDS011;47278;49.732;7.690;2023-04-03T19:43:38;4.20;;;1.80;;
61411;SDS011;47278;49.732;7.690;2023-04-03T19:46:08;5.40;;;2.00;;
61411;SDS011;47278;49.732;7.690;2023-04-03T19:48:34;4.27;;;1.80;;
61411;SDS011;47278;49.732;7.690;2023-04-03T19:51:00;4.03;;;1.90;;
61411;SDS011;47278;49.732;7.690;2023-04-03T19:53:28;4.10;;;1.60;;
61411;SDS011;47278;49.732;7.690;2023-04-03T19:55:54;3.10;;;1.70;;
61411;SDS011;47278;49.732;7.690;2023-04-03T19:58:21;5.03;;;1.70;;
61411;SDS011;47278;49.732;7.690;2023-04-03T20:00:48;2.83;;;1.80;;
61411;SDS011;47278;49.732;7.690;2023-04-03T20:03:14;3.93;;;1.80;;
61411;SDS011;47278;49.732;7.690;2023-04-03T20:05:40;6.23;;;1.80;;
61411;SDS011;47278;49.732;7.690;2023-04-03T20:08:05;3.23;;;1.73;;
61411;SDS011;47278;49.732;7.690;2023-04-03T20:10:31;4.47;;;2.00;;
61411;SDS011;47278;49.732;7.690;2023-04-03T20:12:57;2.50;;;1.60;;
61411;SDS011;47278;49.732;7.690;2023-04-03T20:15:23;5.73;;;1.93;;
61411;SDS011;47278;49.732;7.690;2023-04-03T20:17:50;3.67;;;2.00;;
61411;SDS011;47278;49.732;7.690;2023-04-03T20:20:15;3.30;;;1.63;;
61411;SDS011;47278;49.732;7.690;2023-04-03T20:22:42;4.77;;;1.80;;
61411;SDS011;47278;49.732;7.690;2023-04-03T20:25:09;3.07;;;1.70;;
61411;SDS011;47278;49.732;7.690;2023-04-03T20:27:36;3.63;;;1.80;;
61411;SDS011;47278;49.732;7.690;2023-04-03T20:30:04;3.17;;;1.80;;
61411;SDS011;47278;49.732;7.690;2023-04-03T20:32:32;3.20;;;2.20;;
61411;SDS011;47278;49.732;7.690;2023-04-03T20:34:59;4.87;;;2.40;;
61411;SDS011;47278;49.732;7.690;2023-04-03T20:37:25;3.73;;;1.97;;
61411;SDS011;47278;49.732;7.690;2023-04-03T20:39:51;3.77;;;1.80;;
61411;SDS011;47278;49.732;7.690;2023-04-03T20:42:17;3.07;;;1.90;;
61411;SDS011;47278;49.732;7.690;2023-04-03T20:44:44;6.10;;;2.10;;
61411;SDS011;47278;49.732;7.690;2023-04-03T20:47:13;3.07;;;1.60;;
61411;SDS011;47278;49.732;7.690;2023-04-03T20:49:39;3.40;;;1.90;;
61411;SDS011;47278;49.732;7.690;2023-04-03T20:52:07;4.33;;;2.10;;
61411;SDS011;47278;49.732;7.690;2023-04-03T20:54:34;4.70;;;2.13;;
61411;SDS011;47278;49.732;7.690;2023-04-03T20:56:59;3.73;;;1.70;;
61411;SDS011;47278;49.732;7.690;2023-04-03T20:59:26;2.70;;;1.70;;
61411;SDS011;47278;49.732;7.690;2023-04-03T21:01:53;4.47;;;2.13;;
61411;SDS011;47278;49.732;7.690;2023-04-03T21:04:22;5.40;;;1.97;;
61411;SDS011;47278;49.732;7.690;2023-04-03T21:21:06;4.10;;;1.87;;
61411;SDS011;47278;49.732;7.690;2023-04-03T21:23:51;4.00;;;1.73;;
61411;SDS011;47278;49.732;7.690;2023-04-03T21:26:18;4.47;;;1.70;;
61411;SDS011;47278;49.732;7.690;2023-04-03T21:28:51;2.60;;;1.70;;
61411;SDS011;47278;49.732;7.690;2023-04-03T21:31:19;4.00;;;2.10;;
61411;SDS011;47278;49.732;7.690;2023-04-03T21:33:46;3.53;;;1.90;;
61411;SDS011;47278;49.732;7.690;2023-04-03T21:36:11;4.43;;;2.00;;
61411;SDS011;47278;49.732;7.690;2023-04-03T21:38:37;6.60;;;2.17;;
61411;SDS011;47278;49.732;7.690;2023-04-03T21:41:03;5.43;;;2.03;;
61411;SDS011;47278;49.732;7.690;2023-04-03T21:43:29;3.60;;;2.10;;
61411;SDS011;47278;49.732;7.690;2023-04-03T21:45:55;4.17;;;2.00;;
61411;SDS011;47278;49.732;7.690;2023-04-03T21:48:22;3.57;;;1.90;;
61411;SDS011;47278;49.732;7.690;2023-04-03T21:50:48;7.43;;;2.00;;
61411;SDS011;47278;49.732;7.690;2023-04-03T21:53:17;3.57;;;1.73;;
61411;SDS011;47278;49.732;7.690;2023-04-03T21:55:53;3.80;;;1.93;;
61411;SDS011;47278;49.732;7.690;2023-04-03T21:58:19;4.50;;;2.17;;
61411;SDS011;47278;49.732;7.690;2023-04-03T22:00:45;6.20;;;1.90;;
61411;SDS011;47278;49.732;7.690;2023-04-03T22:03:11;5.47;;;2.10;;
61411;SDS011;47278;49.732;7.690;2023-04-03T22:05:43;3.53;;;1.67;;